Time;durP1;ratioP1;P1;durP2;ratioP2;P2;SDS_P1;SDS_P2;PMS_P1;PMS_P2;Temp;Humidity;BMP_temperature;BMP_pressure;BME280_temperature;BME280_humidity;BME280_pressure;Samples;Min_cycle;Max_cycle;Signal;HPM_P1;HPM_P2
2022/01/11 00:00:23;;;;;;;47.30;14.60;;;;;;;-3.39;88.76;100843.95;103542;1302;22522;-25
2022/01/11 00:02:49;;;;;;;49.90;16.70;;;;;;;-3.48;89.40;100849.07;103529;1302;24530;-30
2022/01/11 00:07:45;;;;;;;32.50;12.70;;;;;;;-3.47;89.52;100848.52;103557;1302;26139;-27
2022/01/11 00:10:14;;;;;;;46.70;17.00;;;;;;;-3.54;90.02;100853.04;103583;1302;24311;-27
2022/01/11 00:12:40;;;;;;;40.40;15.60;;;;;;;-3.60;90.06;100851.20;103530;1302;22642;-31
2022/01/11 00:15:06;;;;;;;48.70;18.00;;;;;;;-3.62;89.85;100852.71;103533;1302;24201;-27
2022/01/11 00:17:32;;;;;;;50.20;18.00;;;;;;;-3.67;90.03;100855.41;103574;1301;24268;-26
2022/01/11 00:19:58;;;;;;;40.40;15.70;;;;;;;-3.67;90.45;100858.05;103502;1300;24292;-27
2022/01/11 00:22:30;;;;;;;47.20;16.70;;;;;;;-3.66;90.32;100857.61;103612;1300;24208;-28
2022/01/11 00:24:56;;;;;;;42.20;14.80;;;;;;;-3.64;90.29;100858.41;103525;1302;24300;-25
2022/01/11 00:27:22;;;;;;;50.90;17.30;;;;;;;-3.65;90.15;100856.86;103531;1300;24279;-29
2022/01/11 00:29:51;;;;;;;49.40;18.00;;;;;;;-3.66;89.86;100858.13;103501;1302;24390;-29
2022/01/11 00:32:26;;;;;;;60.20;20.40;;;;;;;-3.74;90.07;100858.36;103526;1302;24352;-27
2022/01/11 00:34:55;;;;;;;46.70;18.40;;;;;;;-3.78;90.06;100852.76;103554;1300;22514;-27
2022/01/11 00:37:21;;;;;;;38.20;12.50;;;;;;;-3.83;90.56;100856.64;103575;1300;24341;-29
2022/01/11 00:39:49;;;;;;;42.90;16.20;;;;;;;-3.81;90.61;100860.77;103513;1300;24229;-26
2022/01/11 00:42:15;;;;;;;35.70;14.60;;;;;;;-3.85;90.25;100859.71;103537;1302;22497;-29
2022/01/11 00:44:43;;;;;;;44.50;16.60;;;;;;;-3.84;90.79;100861.08;103557;1300;24347;-31
2022/01/11 00:47:10;;;;;;;38.00;13.20;;;;;;;-3.80;90.41;100863.52;103570;1300;24327;-29
2022/01/11 00:49:38;;;;;;;45.20;17.50;;;;;;;-3.77;90.47;100863.88;103491;1300;24474;-26
2022/01/11 00:52:04;;;;;;;61.00;15.50;;;;;;;-3.80;90.20;100860.53;103606;1300;22854;-28
2022/01/11 00:54:30;;;;;;;71.50;18.40;;;;;;;-3.86;90.06;100868.84;103538;1301;24335;-29
2022/01/11 00:56:56;;;;;;;51.20;20.00;;;;;;;-3.99;90.30;100865.92;103538;1300;22552;-29
2022/01/11 00:59:22;;;;;;;54.90;20.20;;;;;;;-4.07;90.17;100867.31;103537;1299;22833;-26
2022/01/11 01:01:48;;;;;;;48.50;18.80;;;;;;;-4.20;90.82;100868.80;103603;1300;24192;-30
2022/01/11 01:04:14;;;;;;;52.80;18.30;;;;;;;-4.24;91.27;100873.16;103503;1300;24310;-31
2022/01/11 01:06:41;;;;;;;34.10;14.40;;;;;;;-4.36;91.45;100872.95;103569;1300;22642;-31
2022/01/11 01:09:08;;;;;;;46.30;15.00;;;;;;;-4.47;92.13;100872.52;103533;1302;24334;-28
2022/01/11 01:11:34;;;;;;;52.60;15.30;;;;;;;-4.61;92.97;100870.51;103567;1300;24233;-28
2022/01/11 01:14:00;;;;;;;52.40;17.60;;;;;;;-4.66;92.39;100873.36;103565;1300;24274;-27
2022/01/11 01:16:26;;;;;;;47.20;18.10;;;;;;;-4.77;92.25;100875.55;103592;1300;24227;-25
2022/01/11 01:18:52;;;;;;;48.40;16.30;;;;;;;-4.88;93.49;100876.70;103525;1300;24352;-29
2022/01/11 01:21:18;;;;;;;72.50;17.50;;;;;;;-4.95;94.57;100876.11;103512;1301;24199;-30
2022/01/11 01:23:44;;;;;;;70.90;19.90;;;;;;;-5.01;95.33;100875.63;103516;1300;24180;-29
2022/01/11 01:26:11;;;;;;;77.90;20.70;;;;;;;-5.06;95.48;100881.25;103559;1300;22522;-28
2022/01/11 01:28:37;;;;;;;55.00;17.60;;;;;;;-5.16;95.63;100880.06;103523;1300;22521;-25
2022/01/11 01:31:03;;;;;;;66.20;21.30;;;;;;;-5.24;95.97;100881.94;103554;1300;24251;-31
2022/01/11 01:33:29;;;;;;;52.50;17.70;;;;;;;-5.32;96.04;100886.48;103540;1300;24214;-25
2022/01/11 01:36:01;;;;;;;40.90;14.00;;;;;;;-5.37;96.08;100891.72;103557;1300;24417;-25
2022/01/11 01:38:28;;;;;;;57.70;20.60;;;;;;;-5.43;96.27;100896.16;103541;1300;24190;-26
2022/01/11 01:40:57;;;;;;;64.50;21.90;;;;;;;-5.50;96.67;100896.60;103522;1300;24372;-25
2022/01/11 01:43:24;;;;;;;52.10;17.20;;;;;;;-5.57;96.41;100899.65;103519;1300;24213;-26
2022/01/11 01:45:52;;;;;;;51.90;19.40;;;;;;;-5.64;97.16;100897.80;103536;1302;24243;-29
2022/01/11 01:48:18;;;;;;;52.20;18.80;;;;;;;-5.71;96.61;100898.55;103606;1300;24274;-28
2022/01/11 01:50:44;;;;;;;50.50;16.70;;;;;;;-5.75;96.59;100900.81;103523;1300;24421;-26
2022/01/11 01:53:12;;;;;;;38.30;16.00;;;;;;;-5.78;96.68;100906.17;103581;1300;24405;-29
2022/01/11 01:55:39;;;;;;;55.70;16.50;;;;;;;-5.85;96.96;100907.48;103537;1300;24195;-26
2022/01/11 01:58:05;;;;;;;46.60;15.00;;;;;;;-5.90;97.17;100912.02;103498;1300;24237;-29
2022/01/11 02:00:32;;;;;;;46.40;18.10;;;;;;;-5.96;97.30;100917.83;103566;1300;24331;-25
2022/01/11 02:03:02;;;;;;;39.60;15.10;;;;;;;-6.00;97.35;100918.50;103510;1300;24295;-30
2022/01/11 02:05:28;;;;;;;74.40;18.80;;;;;;;-6.02;97.06;100915.79;103476;1300;24174;-29
2022/01/11 02:07:54;;;;;;;75.20;20.40;;;;;;;-6.05;97.47;100915.53;103568;1300;24147;-25
2022/01/11 02:10:20;;;;;;;65.00;21.00;;;;;;;-6.11;97.22;100918.18;103551;1300;24228;-29
2022/01/11 02:12:46;;;;;;;50.20;14.40;;;;;;;-6.17;97.41;100919.08;103417;1300;24427;-29
2022/01/11 02:15:12;;;;;;;67.20;21.10;;;;;;;-6.24;97.81;100919.14;103493;1300;24229;-26
2022/01/11 02:17:39;;;;;;;55.40;19.60;;;;;;;-6.28;98.12;100921.06;103580;1300;24174;-25
2022/01/11 02:20:05;;;;;;;76.60;22.80;;;;;;;-6.33;98.05;100924.70;103553;1300;24175;-25
2022/01/11 02:22:31;;;;;;;52.80;17.90;;;;;;;-6.39;97.80;100924.03;103589;1300;24214;-26
2022/01/11 02:24:57;;;;;;;60.80;21.20;;;;;;;-6.45;98.31;100933.63;103526;1300;24188;-25
2022/01/11 02:27:23;;;;;;;56.90;19.80;;;;;;;-6.46;98.14;100933.67;103593;1299;24310;-28
2022/01/11 02:29:49;;;;;;;52.70;18.50;;;;;;;-6.50;98.31;100933.27;103543;1302;24257;-26
2022/01/11 02:32:15;;;;;;;54.30;16.90;;;;;;;-6.56;98.36;100930.16;103579;1302;22521;-28
2022/01/11 02:34:41;;;;;;;47.60;17.40;;;;;;;-6.62;99.37;100933.32;103511;1300;24198;-26
2022/01/11 02:37:07;;;;;;;70.80;18.90;;;;;;;-6.65;99.97;100935.86;103529;1300;24251;-28
2022/01/11 02:39:34;;;;;;;34.60;14.20;;;;;;;-6.67;99.98;100936.09;103561;1300;24284;-25
2022/01/11 02:42:01;;;;;;;52.30;18.70;;;;;;;-6.67;100.00;100943.05;103543;1300;24390;-28
2022/01/11 02:44:27;;;;;;;49.10;20.40;;;;;;;-6.68;100.00;100939.80;103629;1300;22530;-28
2022/01/11 02:46:53;;;;;;;76.20;23.20;;;;;;;-6.70;100.00;100943.86;103539;1300;24295;-28
2022/01/11 02:49:19;;;;;;;44.20;17.00;;;;;;;-6.71;99.99;100948.41;103581;1300;24374;-24
2022/01/11 02:51:45;;;;;;;61.10;18.70;;;;;;;-6.71;100.00;100948.23;103556;1302;24178;-25
2022/01/11 02:54:11;;;;;;;43.90;16.50;;;;;;;-6.75;100.00;100944.02;103586;1300;24219;-25
2022/01/11 02:56:37;;;;;;;65.60;20.60;;;;;;;-6.77;99.88;100943.02;103623;1300;24547;-29
2022/01/11 02:59:03;;;;;;;70.20;21.90;;;;;;;-6.83;99.87;100940.96;103488;1302;24189;-26
2022/01/11 03:01:29;;;;;;;79.10;24.20;;;;;;;-6.84;99.86;100944.48;103520;1302;24249;-28
2022/01/11 03:03:55;;;;;;;47.70;17.30;;;;;;;-6.87;99.80;100945.78;103521;1300;24330;-24
2022/01/11 03:06:21;;;;;;;61.90;19.80;;;;;;;-6.94;99.96;100951.77;103567;1300;24186;-25
2022/01/11 03:08:48;;;;;;;71.10;24.70;;;;;;;-6.98;100.00;100950.66;103579;1300;22770;-25
2022/01/11 03:11:15;;;;;;;103.00;28.10;;;;;;;-7.02;100.00;100953.55;103667;1300;24378;-25
2022/01/11 03:13:41;;;;;;;89.40;24.40;;;;;;;-7.07;100.00;100952.49;103617;1300;24173;-25
2022/01/11 03:16:08;;;;;;;86.90;24.80;;;;;;;-7.09;100.00;100956.03;103550;1300;24266;-25
2022/01/11 03:18:34;;;;;;;87.30;24.80;;;;;;;-7.07;100.00;100957.73;103481;1300;24138;-25
2022/01/11 03:20:59;;;;;;;62.10;21.80;;;;;;;-7.07;100.00;100962.41;103547;1300;24206;-29
2022/01/11 03:23:25;;;;;;;58.50;22.40;;;;;;;-7.10;100.00;100964.77;103555;1300;24222;-24
2022/01/11 03:25:52;;;;;;;65.60;22.70;;;;;;;-7.12;100.00;100969.36;103565;1300;24277;-25
2022/01/11 03:28:19;;;;;;;49.30;18.60;;;;;;;-7.17;100.00;100968.46;103541;1302;24150;-26
2022/01/11 03:30:45;;;;;;;49.00;19.90;;;;;;;-7.13;100.00;100971.14;103448;1300;24198;-25
2022/01/11 03:33:11;;;;;;;62.20;18.60;;;;;;;-7.14;100.00;100974.98;103543;1302;24176;-27
2022/01/11 03:35:38;;;;;;;64.70;20.20;;;;;;;-7.22;100.00;100976.79;103601;1300;24339;-25
2022/01/11 03:38:04;;;;;;;59.80;18.20;;;;;;;-7.24;100.00;100976.33;103551;1300;24193;-28
2022/01/11 03:40:30;;;;;;;47.00;16.30;;;;;;;-7.21;100.00;100976.25;103525;1301;22514;-25
2022/01/11 03:42:56;;;;;;;59.70;18.30;;;;;;;-7.18;100.00;100975.98;103596;1300;24253;-26
2022/01/11 03:45:22;;;;;;;47.50;15.50;;;;;;;-7.20;99.98;100979.88;103600;1300;24315;-28
2022/01/11 03:47:49;;;;;;;46.70;16.60;;;;;;;-7.18;99.11;100981.73;103571;1300;22725;-25
2022/01/11 03:50:16;;;;;;;57.30;19.90;;;;;;;-7.21;96.50;100981.65;103572;1300;24136;-25
2022/01/11 03:52:43;;;;;;;42.00;15.80;;;;;;;-7.33;95.38;100979.55;103572;1300;22533;-25
2022/01/11 03:55:12;;;;;;;63.00;18.30;;;;;;;-7.42;96.45;100976.87;103585;1302;24196;-28
2022/01/11 03:57:39;;;;;;;41.00;13.60;;;;;;;-7.46;96.74;100977.48;103506;1300;24253;-25
2022/01/11 04:00:09;;;;;;;37.00;13.60;;;;;;;-7.49;97.00;100974.27;103571;1300;24362;-25
2022/01/11 04:02:35;;;;;;;38.00;17.10;;;;;;;-7.52;98.05;100974.52;103552;1300;24197;-25
2022/01/11 04:05:01;;;;;;;44.60;13.70;;;;;;;-7.52;99.17;100976.44;103549;1302;24229;-28
2022/01/11 04:07:27;;;;;;;51.50;17.40;;;;;;;-7.58;99.65;100978.17;103622;1300;24358;-29
2022/01/11 04:09:54;;;;;;;67.90;21.50;;;;;;;-7.67;99.78;100982.96;103261;1300;531988;-24
2022/01/11 04:12:20;;;;;;;75.20;21.00;;;;;;;-7.78;99.73;100984.97;103600;1300;23149;-25
2022/01/11 04:14:46;;;;;;;59.20;19.10;;;;;;;-7.84;99.68;100989.14;103554;1300;24296;-26
2022/01/11 04:17:12;;;;;;;67.50;18.20;;;;;;;-7.88;99.62;100990.12;103550;1300;24366;-28
2022/01/11 04:19:39;;;;;;;52.60;18.80;;;;;;;-7.92;99.83;100988.67;103509;1300;24206;-29
2022/01/11 04:22:05;;;;;;;49.10;17.60;;;;;;;-7.94;100.00;100994.81;103562;1300;24323;-25
2022/01/11 04:24:30;;;;;;;59.80;18.60;;;;;;;-7.95;100.00;100994.82;103580;1302;24176;-25
2022/01/11 04:26:56;;;;;;;66.40;19.70;;;;;;;-7.95;100.00;101004.56;103569;1300;24345;-29
2022/01/11 04:29:22;;;;;;;49.70;18.20;;;;;;;-7.99;100.00;101006.23;103548;1300;24217;-25
2022/01/11 04:31:48;;;;;;;59.00;19.90;;;;;;;-8.01;100.00;101009.23;103569;1300;24215;-27
2022/01/11 04:34:14;;;;;;;53.60;17.40;;;;;;;-8.02;100.00;101012.38;103537;1300;24678;-29
2022/01/11 04:36:40;;;;;;;70.70;20.30;;;;;;;-8.01;100.00;101010.96;103604;1300;24205;-30
2022/01/11 04:39:08;;;;;;;55.70;18.50;;;;;;;-7.99;100.00;101017.00;103602;1300;24157;-26
2022/01/11 04:41:34;;;;;;;35.50;13.30;;;;;;;-7.96;100.00;101019.01;103616;1300;24280;-28
2022/01/11 04:44:00;;;;;;;85.50;22.50;;;;;;;-7.96;100.00;101024.22;103539;1300;24190;-29
2022/01/11 04:46:26;;;;;;;78.70;19.60;;;;;;;-7.93;100.00;101023.30;103525;1300;24230;-28
2022/01/11 04:48:53;;;;;;;51.20;16.30;;;;;;;-7.93;100.00;101025.36;103525;1302;24362;-29
2022/01/11 04:51:20;;;;;;;55.20;20.70;;;;;;;-7.92;100.00;101026.58;103562;1300;24322;-26
2022/01/11 04:53:47;;;;;;;61.60;17.50;;;;;;;-7.93;100.00;101032.33;103601;1300;25503;-29
2022/01/11 04:56:13;;;;;;;46.40;15.70;;;;;;;-7.87;100.00;101034.08;103558;1300;24300;-25
2022/01/11 04:58:39;;;;;;;50.20;15.80;;;;;;;-7.85;100.00;101034.91;103502;1300;24223;-26
2022/01/11 05:01:05;;;;;;;60.40;19.00;;;;;;;-7.79;100.00;101033.17;103609;1301;24153;-30
2022/01/11 05:03:31;;;;;;;44.00;16.30;;;;;;;-7.73;100.00;101032.65;103634;1297;24375;-25
2022/01/11 05:05:57;;;;;;;41.60;15.10;;;;;;;-7.71;100.00;101031.04;103581;1300;24214;-27
2022/01/11 05:08:23;;;;;;;51.40;13.70;;;;;;;-7.67;100.00;101035.80;103523;1300;24439;-28
2022/01/11 05:10:49;;;;;;;50.70;17.20;;;;;;;-7.73;99.67;101038.26;103516;1300;24403;-25
2022/01/11 05:13:17;;;;;;;59.40;18.50;;;;;;;-7.78;97.52;101042.02;103475;1302;24182;-27
2022/01/11 05:15:43;;;;;;;54.50;18.70;;;;;;;-7.92;96.54;101047.06;103549;1300;24391;-28
2022/01/11 05:18:09;;;;;;;77.20;17.80;;;;;;;-7.98;96.40;101048.10;103594;1300;22513;-26
2022/01/11 05:20:36;;;;;;;56.10;17.70;;;;;;;-8.04;96.14;101052.22;103601;1300;24305;-30
2022/01/11 05:23:02;;;;;;;43.00;14.80;;;;;;;-8.07;96.50;101049.36;103546;1300;24225;-28
2022/01/11 05:25:28;;;;;;;69.60;19.70;;;;;;;-8.07;96.58;101061.01;103575;1300;24217;-26
2022/01/11 05:27:54;;;;;;;62.30;16.20;;;;;;;-8.08;97.36;101059.10;103595;1300;24271;-27
2022/01/11 05:30:20;;;;;;;58.60;19.10;;;;;;;-8.08;98.02;101065.56;103549;1300;22522;-29
2022/01/11 05:32:48;;;;;;;53.80;15.20;;;;;;;-8.08;98.38;101067.64;103592;1301;24185;-28
2022/01/11 05:35:14;;;;;;;75.50;18.80;;;;;;;-8.10;98.65;101071.51;103561;1300;22718;-25
2022/01/11 05:37:40;;;;;;;60.20;18.80;;;;;;;-8.08;98.97;101072.84;103488;1302;24348;-30
2022/01/11 05:40:07;;;;;;;49.70;14.10;;;;;;;-8.12;99.40;101079.55;103592;1300;24279;-25
2022/01/11 05:42:33;;;;;;;48.90;14.40;;;;;;;-8.19;99.84;101082.50;103591;1300;24383;-28
2022/01/11 05:44:59;;;;;;;62.00;17.90;;;;;;;-8.26;99.81;101083.70;103596;1300;24215;-28
2022/01/11 05:47:25;;;;;;;55.00;16.40;;;;;;;-8.24;99.99;101081.06;103657;1300;24215;-28
2022/01/11 05:49:52;;;;;;;54.00;19.40;;;;;;;-8.25;100.00;101079.70;103630;1300;24315;-28
2022/01/11 05:52:18;;;;;;;51.50;18.60;;;;;;;-8.31;100.00;101082.77;103587;1300;22515;-29
2022/01/11 05:54:44;;;;;;;57.00;19.20;;;;;;;-8.33;100.00;101080.56;103562;1300;24248;-29
2022/01/11 05:57:10;;;;;;;57.40;16.80;;;;;;;-8.35;100.00;101085.30;103576;1300;24536;-28
2022/01/11 05:59:36;;;;;;;60.50;20.60;;;;;;;-8.38;100.00;101086.61;103561;1300;24198;-27
2022/01/11 06:02:02;;;;;;;84.70;20.40;;;;;;;-8.36;100.00;101093.33;103557;1300;22760;-27
2022/01/11 06:04:28;;;;;;;48.30;15.20;;;;;;;-8.33;100.00;101094.64;103524;1300;24401;-28
2022/01/11 06:06:54;;;;;;;51.40;19.80;;;;;;;-8.27;100.00;101091.02;103611;1300;24211;-29
2022/01/11 06:09:25;;;;;;;47.70;16.00;;;;;;;-8.25;100.00;101093.25;103541;1300;24260;-25
2022/01/11 06:11:53;;;;;;;64.70;19.40;;;;;;;-8.22;100.00;101097.86;103580;1300;22660;-27
2022/01/11 06:14:19;;;;;;;46.50;17.50;;;;;;;-8.16;100.00;101102.08;103520;1302;24254;-25
2022/01/11 06:16:46;;;;;;;72.50;20.60;;;;;;;-8.21;100.00;101106.52;103601;1300;24217;-29
2022/01/11 06:19:12;;;;;;;54.90;15.50;;;;;;;-8.30;100.00;101112.45;103592;1300;24244;-27
2022/01/11 06:21:38;;;;;;;79.40;23.60;;;;;;;-8.30;100.00;101118.02;103562;1300;22821;-30
2022/01/11 06:24:04;;;;;;;64.30;21.60;;;;;;;-8.31;100.00;101122.21;103585;1300;24297;-26
2022/01/11 06:26:30;;;;;;;49.00;16.90;;;;;;;-8.21;100.00;101126.84;103626;1300;23044;-28
2022/01/11 06:28:57;;;;;;;69.70;20.90;;;;;;;-8.14;100.00;101122.52;103605;1300;24213;-30
2022/01/11 06:31:23;;;;;;;47.90;17.20;;;;;;;-8.17;100.00;101125.55;103626;1300;24294;-26
2022/01/11 06:33:49;;;;;;;78.60;21.20;;;;;;;-8.15;100.00;101122.70;103662;1300;22833;-30
2022/01/11 06:36:15;;;;;;;64.80;19.70;;;;;;;-8.11;100.00;101121.24;103549;1300;24011;-29
2022/01/11 06:38:42;;;;;;;46.90;15.50;;;;;;;-7.96;100.00;101120.54;103585;1300;24173;-26
2022/01/11 06:41:09;;;;;;;66.40;15.80;;;;;;;-7.90;100.00;101125.78;103573;1300;24230;-26
2022/01/11 06:43:36;;;;;;;65.90;23.00;;;;;;;-7.94;100.00;101129.17;103561;1300;24197;-28
2022/01/11 06:46:02;;;;;;;75.70;25.60;;;;;;;-8.04;100.00;101131.16;103526;1300;24208;-28
2022/01/11 06:48:28;;;;;;;59.90;17.90;;;;;;;-8.15;100.00;101137.65;103531;1300;24377;-25
2022/01/11 06:50:55;;;;;;;73.70;25.60;;;;;;;-8.20;100.00;101139.33;103527;1302;24301;-26
2022/01/11 06:53:21;;;;;;;80.90;24.50;;;;;;;-8.30;99.94;101141.48;103567;1300;24251;-26
2022/01/11 06:55:49;;;;;;;59.00;21.30;;;;;;;-8.27;100.00;101141.94;103569;1300;24339;-29
2022/01/11 06:58:16;;;;;;;54.80;21.50;;;;;;;-8.16;100.00;101141.00;103553;1300;24011;-29
2022/01/11 07:00:43;;;;;;;96.10;25.70;;;;;;;-8.14;100.00;101139.36;103581;1300;24252;-26
2022/01/11 07:03:09;;;;;;;47.70;17.80;;;;;;;-8.15;100.00;101147.92;103537;1302;24709;-26
2022/01/11 07:05:35;;;;;;;51.40;14.60;;;;;;;-8.13;100.00;101148.23;103552;1300;24314;-25
2022/01/11 07:08:01;;;;;;;46.20;14.70;;;;;;;-7.98;100.00;101150.80;103506;1300;24257;-24
2022/01/11 07:10:27;;;;;;;71.60;20.90;;;;;;;-7.80;100.00;101154.05;103513;1300;24260;-28
2022/01/11 07:12:53;;;;;;;79.10;24.00;;;;;;;-7.82;100.00;101150.46;103558;1300;24265;-25
2022/01/11 07:15:19;;;;;;;66.10;23.40;;;;;;;-7.96;100.00;101157.91;103533;1300;24280;-25
2022/01/11 07:17:46;;;;;;;62.00;17.80;;;;;;;-8.03;100.00;101158.40;103616;1300;24320;-25
2022/01/11 07:20:12;;;;;;;50.00;17.60;;;;;;;-8.02;100.00;101163.09;103618;1300;24317;-28
2022/01/11 07:22:38;;;;;;;83.80;26.30;;;;;;;-7.99;100.00;101167.02;103549;1300;24166;-29
2022/01/11 07:25:05;;;;;;;49.10;17.40;;;;;;;-7.94;100.00;101165.34;103573;1301;24344;-26
2022/01/11 07:27:33;;;;;;;82.80;22.70;;;;;;;-7.78;100.00;101163.57;103794;1300;24200;-25
2022/01/11 07:30:01;;;;;;;74.10;23.10;;;;;;;-7.59;100.00;101165.36;103684;1300;22749;-25
2022/01/11 07:32:27;;;;;;;113.20;34.50;;;;;;;-7.43;100.00;101164.98;103545;1300;24320;-25
2022/01/11 07:34:53;;;;;;;132.80;40.20;;;;;;;-7.47;100.00;101161.23;103557;1300;24231;-29
2022/01/11 07:37:19;;;;;;;106.10;33.40;;;;;;;-7.49;100.00;101160.39;103523;1300;24223;-28
2022/01/11 07:39:44;;;;;;;94.70;32.60;;;;;;;-7.48;100.00;101163.86;103564;1300;24174;-26
2022/01/11 07:42:10;;;;;;;84.30;27.50;;;;;;;-7.60;99.88;101165.37;103552;1300;22864;-27
2022/01/11 07:44:36;;;;;;;83.60;24.00;;;;;;;-7.66;99.60;101172.65;103503;1300;24197;-27
2022/01/11 07:47:04;;;;;;;84.90;27.70;;;;;;;-7.59;99.93;101173.70;103635;1300;24303;-25
2022/01/11 07:49:30;;;;;;;90.20;30.00;;;;;;;-7.51;99.98;101174.56;103465;1300;24226;-28
2022/01/11 07:51:58;;;;;;;106.80;29.80;;;;;;;-7.44;99.94;101176.64;103432;1300;22947;-27
2022/01/11 07:54:24;;;;;;;105.60;30.40;;;;;;;-7.41;99.69;101180.04;103567;1301;24175;-30
2022/01/11 07:56:50;;;;;;;109.40;31.00;;;;;;;-7.37;99.66;101180.63;103506;1300;24318;-27
2022/01/11 07:59:16;;;;;;;103.40;31.80;;;;;;;-7.21;100.00;101180.73;103546;1300;24298;-27
2022/01/11 08:01:42;;;;;;;91.70;25.60;;;;;;;-6.99;100.00;101181.02;103595;1300;24223;-27
2022/01/11 08:04:08;;;;;;;86.30;26.10;;;;;;;-6.84;100.00;101183.05;103558;1300;24179;-27
2022/01/11 08:06:33;;;;;;;90.80;28.80;;;;;;;-6.75;99.77;101182.65;103521;1300;24323;-30
2022/01/11 08:09:00;;;;;;;108.90;33.30;;;;;;;-6.72;99.30;101183.77;103624;1300;24263;-27
2022/01/11 08:11:26;;;;;;;82.30;26.80;;;;;;;-6.61;99.18;101187.48;103491;1300;24208;-31
2022/01/11 08:13:52;;;;;;;73.10;25.20;;;;;;;-6.60;98.06;101192.66;103613;1300;24217;-28
2022/01/11 08:16:18;;;;;;;96.50;30.50;;;;;;;-6.61;97.45;101195.48;103540;1300;24216;-26
2022/01/11 08:18:44;;;;;;;102.70;32.70;;;;;;;-6.63;97.05;101198.66;103521;1300;22508;-25
2022/01/11 08:21:10;;;;;;;131.00;34.70;;;;;;;-6.57;97.46;101200.09;103544;1300;24203;-25
2022/01/11 08:23:36;;;;;;;107.10;35.40;;;;;;;-6.45;97.94;101200.77;103432;1300;24305;-25
2022/01/11 08:26:02;;;;;;;139.70;39.50;;;;;;;-6.36;97.52;101202.58;103499;1300;24162;-28
2022/01/11 08:28:28;;;;;;;165.10;50.80;;;;;;;-6.38;96.46;101200.57;103585;1300;24447;-28
2022/01/11 08:30:57;;;;;;;163.70;43.00;;;;;;;-6.24;97.19;101199.45;103580;1300;24234;-26
2022/01/11 08:33:23;;;;;;;150.00;48.20;;;;;;;-6.07;97.13;101195.98;103505;1300;24275;-30
2022/01/11 08:35:48;;;;;;;146.00;43.30;;;;;;;-5.98;96.90;101193.77;103497;1300;24234;-25
2022/01/11 08:38:14;;;;;;;146.20;46.00;;;;;;;-5.79;97.19;101198.55;103480;1300;24292;-30
2022/01/11 08:40:40;;;;;;;107.70;32.30;;;;;;;-5.58;96.41;101189.89;103485;1300;24294;-26
2022/01/11 08:43:06;;;;;;;144.00;43.90;;;;;;;-5.30;95.22;101189.30;103621;1300;24335;-31
2022/01/11 08:45:32;;;;;;;130.60;42.70;;;;;;;-4.84;96.12;101185.95;103560;1300;24238;-28
2022/01/11 08:47:59;;;;;;;115.10;37.00;;;;;;;-4.56;95.33;101185.46;103512;1300;24215;-31
2022/01/11 08:50:25;;;;;;;113.70;39.30;;;;;;;-4.19;94.26;101185.80;103582;1301;24352;-26
2022/01/11 08:52:52;;;;;;;100.80;36.20;;;;;;;-3.87;94.37;101180.91;103505;1300;24280;-30
2022/01/11 08:55:18;;;;;;;110.00;34.90;;;;;;;-3.66;93.67;101181.11;103571;1300;24347;-29
2022/01/11 08:57:44;;;;;;;95.90;34.10;;;;;;;-3.43;94.00;101180.67;103528;1300;24253;-29
2022/01/11 09:00:16;;;;;;;116.90;39.50;;;;;;;-3.31;89.27;101180.89;103562;1300;24184;-29
2022/01/11 09:02:44;;;;;;;105.50;35.50;;;;;;;-2.99;90.09;101178.83;103557;1300;24331;-25
2022/01/11 09:05:10;;;;;;;94.50;35.80;;;;;;;-2.88;86.19;101178.34;103604;1300;24163;-26
2022/01/11 09:07:36;;;;;;;134.60;38.70;;;;;;;-2.89;83.07;101176.80;103522;1302;24260;-29
2022/01/11 09:10:03;;;;;;;140.30;41.00;;;;;;;-2.65;87.35;101179.06;103518;1300;24233;-29
2022/01/11 09:12:29;;;;;;;106.90;37.60;;;;;;;-2.49;89.96;101183.29;103560;1300;24428;-27
2022/01/11 09:14:55;;;;;;;112.90;42.70;;;;;;;-2.31;90.80;101186.85;103585;1300;24234;-28
2022/01/11 09:17:21;;;;;;;124.60;43.40;;;;;;;-2.24;89.15;101193.04;103561;1300;24167;-31
2022/01/11 09:19:49;;;;;;;115.40;37.90;;;;;;;-2.31;83.46;101196.67;103575;1300;24285;-30
2022/01/11 09:22:15;;;;;;;106.80;42.20;;;;;;;-2.36;82.83;101193.20;103546;1300;24179;-29
2022/01/11 09:24:41;;;;;;;104.80;38.70;;;;;;;-2.05;86.95;101192.65;103468;1300;24281;-25
2022/01/11 09:27:08;;;;;;;112.70;41.90;;;;;;;-1.88;85.30;101196.93;103494;1300;24269;-29
2022/01/11 09:29:36;;;;;;;124.50;46.70;;;;;;;-1.66;85.40;101198.70;103500;1300;22522;-25
2022/01/11 09:32:03;;;;;;;119.40;46.00;;;;;;;-1.50;86.03;101203.54;103616;1300;24352;-25
2022/01/11 09:34:29;;;;;;;109.30;40.00;;;;;;;-1.50;81.98;101204.09;103474;1300;24227;-28
2022/01/11 09:36:54;;;;;;;84.10;36.60;;;;;;;-1.70;78.21;101208.23;103572;1300;24312;-29
2022/01/11 09:39:20;;;;;;;84.60;31.20;;;;;;;-1.69;81.01;101207.96;103489;1302;24343;-27
2022/01/11 09:41:46;;;;;;;92.00;35.30;;;;;;;-1.49;83.79;101209.63;103498;1300;24899;-26
2022/01/11 09:44:12;;;;;;;89.50;33.00;;;;;;;-1.33;84.25;101210.95;103601;1300;24197;-29
2022/01/11 09:46:38;;;;;;;99.60;33.80;;;;;;;-1.28;80.42;101210.88;103530;1300;24316;-26
2022/01/11 09:49:04;;;;;;;94.00;35.80;;;;;;;-1.47;76.45;101214.83;103534;1300;24305;-26
2022/01/11 09:51:31;;;;;;;84.60;36.20;;;;;;;-1.54;78.05;101216.71;103605;1300;24175;-25
2022/01/11 09:53:58;;;;;;;83.10;31.70;;;;;;;-1.42;80.62;101219.34;103558;1300;24327;-25
2022/01/11 09:56:24;;;;;;;84.50;35.20;;;;;;;-1.24;80.65;101218.24;103526;1302;24263;-25
2022/01/11 09:58:49;;;;;;;94.40;37.00;;;;;;;-0.98;81.83;101214.64;103569;1300;24089;-25
2022/01/11 10:01:16;;;;;;;84.40;33.70;;;;;;;-0.58;85.67;101208.00;103522;1300;24236;-25
2022/01/11 10:03:48;;;;;;;78.00;30.00;;;;;;;-0.29;85.46;101205.95;103494;1300;24175;-28
2022/01/11 10:06:15;;;;;;;100.40;35.60;;;;;;;-0.18;82.57;101205.35;103508;1301;25106;-26
2022/01/11 10:08:41;;;;;;;97.20;40.50;;;;;;;-0.41;77.33;101205.70;103551;1300;24172;-26
2022/01/11 10:11:07;;;;;;;89.00;37.40;;;;;;;-0.07;82.32;101207.72;103483;1301;24213;-26
2022/01/11 10:13:35;;;;;;;86.90;37.10;;;;;;;-0.02;76.53;101207.60;103524;1300;24314;-26
2022/01/11 10:16:08;;;;;;;65.20;29.80;;;;;;;-0.04;75.28;101207.76;103537;1300;24350;-25
2022/01/11 10:18:35;;;;;;;87.40;37.20;;;;;;;0.00;75.00;101200.65;103551;1300;23934;-29
2022/01/11 10:21:02;;;;;;;82.00;34.40;;;;;;;0.04;75.24;101199.77;103559;1300;24237;-29
2022/01/11 10:23:31;;;;;;;63.50;27.80;;;;;;;0.03;74.92;101198.04;103563;1300;22522;-29
2022/01/11 10:25:57;;;;;;;82.30;32.90;;;;;;;0.53;79.77;101195.57;103488;1300;24349;-27
2022/01/11 10:28:30;;;;;;;79.80;36.30;;;;;;;0.73;76.80;101195.10;103615;1300;24304;-25
2022/01/11 10:30:56;;;;;;;77.90;33.80;;;;;;;0.96;75.73;101193.05;103505;1300;24316;-29
2022/01/11 10:33:22;;;;;;;75.60;31.90;;;;;;;1.12;75.16;101194.21;103591;1300;22525;-25
2022/01/11 10:35:48;;;;;;;99.60;37.30;;;;;;;1.25;74.65;101195.90;103547;1300;24187;-28
2022/01/11 10:38:24;;;;;;;69.70;27.90;;;;;;;1.04;75.20;101201.05;103474;1302;24322;-25
2022/01/11 10:40:50;;;;;;;81.40;33.30;;;;;;;0.89;71.95;101203.72;103538;1300;24333;-29
2022/01/11 10:43:17;;;;;;;73.20;29.20;;;;;;;0.98;73.27;101207.38;103482;1300;24185;-25
2022/01/11 10:45:45;;;;;;;60.60;27.90;;;;;;;0.68;69.84;101207.57;103503;1300;24178;-26
2022/01/11 10:48:13;;;;;;;85.90;34.60;;;;;;;0.90;71.15;101203.09;103556;1299;24176;-25
2022/01/11 10:50:42;;;;;;;81.40;31.50;;;;;;;1.39;71.84;101201.96;103602;1300;24279;-29
2022/01/11 10:53:27;;;;;;;71.80;31.00;;;;;;;1.24;71.94;101201.78;103547;1300;24378;-29
2022/01/11 10:55:54;;;;;;;78.00;31.50;;;;;;;1.75;70.86;101201.14;103554;1300;24175;-26
2022/01/11 10:58:22;;;;;;;72.90;33.90;;;;;;;1.69;70.05;101202.23;103397;1301;24239;-29